createdAt,value
2015-03-02T00:00:05.225Z,98831
2015-03-02T00:00:23.903Z,98840
2015-03-02T00:00:42.591Z,98828
2015-03-02T00:01:01.261Z,98824
2015-03-02T00:01:19.935Z,98831
2015-03-02T00:01:38.611Z,98831
2015-03-02T00:01:57.302Z,98840
2015-03-02T00:02:15.963Z,98840
2015-03-02T00:02:34.505Z,98831
2015-03-02T00:02:53.165Z,98840
2015-03-02T00:03:11.855Z,98834
2015-03-02T00:03:30.532Z,98826
2015-03-02T00:03:49.213Z,98824
2015-03-02T00:04:07.876Z,98824
2015-03-02T00:04:26.568Z,98834
2015-03-02T00:04:45.230Z,98834
2015-03-02T00:05:03.913Z,98834
2015-03-02T00:05:22.605Z,98837
2015-03-02T00:05:41.285Z,98834
2015-03-02T00:05:59.941Z,98834
2015-03-02T00:06:18.639Z,98824
2015-03-02T00:06:37.311Z,98821
2015-03-02T00:06:55.988Z,98843
2015-03-02T00:07:14.665Z,98828
2015-03-02T00:07:33.326Z,98831
2015-03-02T00:07:52.035Z,98831
2015-03-02T00:08:10.720Z,98846
2015-03-02T00:08:29.393Z,98846
2015-03-02T00:08:48.069Z,98828
2015-03-02T00:09:06.747Z,98824
2015-03-02T00:09:25.425Z,98834
2015-03-02T00:09:44.087Z,98824
2015-03-02T00:10:02.760Z,98828
2015-03-02T00:10:21.457Z,98828
2015-03-02T00:10:40.132Z,98824
2015-03-02T00:10:58.804Z,98818
2015-03-02T00:11:17.490Z,98834
2015-03-02T00:11:36.157Z,98818
2015-03-02T00:11:54.845Z,98824
2015-03-02T00:12:13.513Z,98818
2015-03-02T00:12:32.195Z,98828
2015-03-02T00:12:50.855Z,98821
2015-03-02T00:13:09.548Z,98828
2015-03-02T00:13:28.222Z,98824
2015-03-02T00:13:46.886Z,98828
2015-03-02T00:14:05.576Z,98824
2015-03-02T00:14:24.235Z,98815
2015-03-02T00:14:42.931Z,98809
2015-03-02T00:15:01.612Z,98806
2015-03-02T00:15:20.298Z,98818
2015-03-02T00:15:39.016Z,98824
2015-03-02T00:15:57.658Z,98812
2015-03-02T00:16:16.344Z,98812
2015-03-02T00:16:35.036Z,98815
2015-03-02T00:16:53.717Z,98812
2015-03-02T00:17:12.386Z,98818
2015-03-02T00:17:31.063Z,98801
2015-03-02T00:17:49.726Z,98815
2015-03-02T00:18:08.426Z,98812
2015-03-02T00:18:27.094Z,98804
2015-03-02T00:18:45.769Z,98806
2015-03-02T00:19:04.458Z,98804
2015-03-02T00:19:23.140Z,98798
2015-03-02T00:19:41.802Z,98806
2015-03-02T00:20:00.479Z,98801
2015-03-02T00:20:19.166Z,98804
2015-03-02T00:20:37.846Z,98806
2015-03-02T00:20:56.510Z,98801
2015-03-02T00:21:15.201Z,98801
2015-03-02T00:21:33.877Z,98792
2015-03-02T00:21:52.564Z,98804
2015-03-02T00:22:11.081Z,98801
2015-03-02T00:22:29.759Z,98795
2015-03-02T00:22:48.435Z,98798
2015-03-02T00:23:07.094Z,98801
2015-03-02T00:23:25.781Z,98798
2015-03-02T00:23:44.464Z,98804
2015-03-02T00:24:03.141Z,98806
2015-03-02T00:24:21.810Z,98792
2015-03-02T00:24:40.501Z,98806
2015-03-02T00:24:59.180Z,98812
2015-03-02T00:25:17.861Z,98812
2015-03-02T00:25:36.396Z,98806
2015-03-02T00:25:55.073Z,98809
2015-03-02T00:26:13.753Z,98809
2015-03-02T00:26:32.410Z,98818
2015-03-02T00:26:51.099Z,98818
2015-03-02T00:27:09.765Z,98812
2015-03-02T00:27:28.459Z,98821
2015-03-02T00:27:47.144Z,98815
2015-03-02T00:28:05.815Z,98818
2015-03-02T00:28:24.491Z,98818
2015-03-02T00:28:43.171Z,98818
2015-03-02T00:29:01.840Z,98812
2015-03-02T00:29:20.535Z,98818
2015-03-02T00:29:39.209Z,98801
2015-03-02T00:29:57.885Z,98812
2015-03-02T00:30:16.557Z,98815
2015-03-02T00:30:35.238Z,98804
2015-03-02T00:30:53.898Z,98806
2015-03-02T00:31:12.589Z,98795
2015-03-02T00:31:31.271Z,98801
2015-03-02T00:31:49.928Z,98806
2015-03-02T00:32:08.604Z,98784
2015-03-02T00:32:27.300Z,98792
2015-03-02T00:32:45.961Z,98801
2015-03-02T00:33:04.645Z,98792
2015-03-02T00:33:23.343Z,98787
2015-03-02T00:33:42.004Z,98782
2015-03-02T00:34:00.681Z,98801
2015-03-02T00:34:19.359Z,98792
2015-03-02T00:34:38.059Z,98801
2015-03-02T00:34:56.721Z,98806
2015-03-02T00:35:15.396Z,98792
2015-03-02T00:35:34.086Z,98815
2015-03-02T00:35:52.767Z,98809
2015-03-02T00:36:11.435Z,98809
2015-03-02T00:36:30.109Z,98804
2015-03-02T00:36:48.800Z,98806
2015-03-02T00:37:07.481Z,98806
2015-03-02T00:37:26.155Z,98806
2015-03-02T00:37:44.829Z,98798
2015-03-02T00:38:03.507Z,98798
2015-03-02T00:38:22.165Z,98806
2015-03-02T00:38:40.861Z,98792
2015-03-02T00:38:59.537Z,98784
2015-03-02T00:39:18.210Z,98787
2015-03-02T00:39:36.890Z,98806
2015-03-02T00:39:55.565Z,98798
2015-03-02T00:40:14.237Z,98792
2015-03-02T00:40:32.915Z,98792
2015-03-02T00:40:51.588Z,98801
2015-03-02T00:41:10.269Z,98795
2015-03-02T00:41:28.961Z,98798
2015-03-02T00:41:47.624Z,98801
2015-03-02T00:42:06.315Z,98798
2015-03-02T00:42:24.981Z,98787
2015-03-02T00:42:43.675Z,98792
2015-03-02T00:43:02.366Z,98795
2015-03-02T00:43:21.037Z,98787
2015-03-02T00:43:39.722Z,98787
2015-03-02T00:43:58.404Z,98784
2015-03-02T00:44:17.067Z,98787
2015-03-02T00:44:35.761Z,98792
2015-03-02T00:44:54.445Z,98792
2015-03-02T00:45:13.130Z,98795
2015-03-02T00:45:31.784Z,98798
2015-03-02T00:45:50.472Z,98795
2015-03-02T00:46:08.993Z,98779
2015-03-02T00:46:27.667Z,98787
2015-03-02T00:46:46.338Z,98781
2015-03-02T00:47:05.010Z,98798
2015-03-02T00:47:23.698Z,98792
2015-03-02T00:47:42.380Z,98784
2015-03-02T00:48:01.072Z,98792
2015-03-02T00:48:19.753Z,98792
2015-03-02T00:48:38.434Z,98795
2015-03-02T00:48:57.115Z,98784
2015-03-02T00:49:15.780Z,98792
2015-03-02T00:49:34.454Z,98782
2015-03-02T00:49:53.132Z,98798
2015-03-02T00:50:11.809Z,98798
2015-03-02T00:50:30.502Z,98787
2015-03-02T00:50:49.182Z,98787
2015-03-02T00:51:07.863Z,98787
2015-03-02T00:51:26.542Z,98792
2015-03-02T00:51:45.225Z,98795
2015-03-02T00:52:03.910Z,98798
2015-03-02T00:52:22.581Z,98795
2015-03-02T00:52:41.262Z,98792
2015-03-02T00:52:59.930Z,98784
2015-03-02T00:53:18.464Z,98792
2015-03-02T00:53:37.137Z,98798
2015-03-02T00:53:55.805Z,98784
2015-03-02T00:54:14.485Z,98781
2015-03-02T00:54:33.165Z,98787
2015-03-02T00:54:51.841Z,98773
2015-03-02T00:55:10.532Z,98781
2015-03-02T00:55:29.220Z,98787
2015-03-02T00:55:47.879Z,98779
2015-03-02T00:56:06.566Z,98770
2015-03-02T00:56:25.223Z,98764
2015-03-02T00:56:43.899Z,98761
2015-03-02T00:57:02.590Z,98776
2015-03-02T00:57:21.263Z,98770
2015-03-02T00:57:39.941Z,98776
2015-03-02T00:57:58.612Z,98767
2015-03-02T00:58:17.299Z,98764
2015-03-02T00:58:35.966Z,98770
2015-03-02T00:58:54.667Z,98770
2015-03-02T00:59:13.333Z,98770
2015-03-02T00:59:31.994Z,98764
2015-03-02T00:59:50.675Z,98770
2015-03-02T01:00:09.363Z,98764
2015-03-02T01:00:28.040Z,98756
2015-03-02T01:00:46.706Z,98756
2015-03-02T01:01:05.396Z,98747
2015-03-02T01:01:24.081Z,98764
2015-03-02T01:01:42.742Z,98764
2015-03-02T01:02:01.418Z,98764
2015-03-02T01:02:20.121Z,98753
2015-03-02T01:02:38.791Z,98758
2015-03-02T01:02:57.458Z,98756
2015-03-02T01:03:16.154Z,98747
2015-03-02T01:03:34.812Z,98753
2015-03-02T01:03:53.508Z,98747
2015-03-02T01:04:12.183Z,98744
2015-03-02T01:04:30.852Z,98750
2015-03-02T01:04:49.521Z,98761
2015-03-02T01:05:08.212Z,98744
2015-03-02T01:05:26.886Z,98758
2015-03-02T01:05:45.550Z,98753
2015-03-02T01:06:04.245Z,98756
2015-03-02T01:06:22.909Z,98758
2015-03-02T01:06:41.609Z,98750
2015-03-02T01:07:00.291Z,98756
2015-03-02T01:07:18.974Z,98747
2015-03-02T01:07:37.646Z,98758
2015-03-02T01:07:56.331Z,98750
2015-03-02T01:08:15.008Z,98738
2015-03-02T01:08:33.686Z,98744
2015-03-02T01:08:52.369Z,98753
2015-03-02T01:09:11.037Z,98753
2015-03-02T01:09:29.702Z,98744
2015-03-02T01:09:48.397Z,98738
2015-03-02T01:10:07.081Z,98738
2015-03-02T01:10:25.770Z,98744
2015-03-02T01:10:44.435Z,98744
2015-03-02T01:11:03.130Z,98744
2015-03-02T01:11:21.790Z,98738
2015-03-02T01:11:40.482Z,98738
2015-03-02T01:11:59.155Z,98738
2015-03-02T01:12:17.837Z,98744
2015-03-02T01:12:36.513Z,98738
2015-03-02T01:12:55.171Z,98744
2015-03-02T01:13:13.862Z,98738
2015-03-02T01:13:32.552Z,98747
2015-03-02T01:13:51.238Z,98750
2015-03-02T01:14:09.920Z,98741
2015-03-02T01:14:28.585Z,98744
2015-03-02T01:14:47.269Z,98744
2015-03-02T01:15:05.939Z,98747
2015-03-02T01:15:24.617Z,98741
2015-03-02T01:15:43.317Z,98735
2015-03-02T01:16:01.993Z,98738
2015-03-02T01:16:20.672Z,98741
2015-03-02T01:16:39.347Z,98727
2015-03-02T01:16:58.012Z,98733
2015-03-02T01:17:16.713Z,98727
2015-03-02T01:17:35.395Z,98735
2015-03-02T01:17:54.072Z,98733
2015-03-02T01:18:12.752Z,98733
2015-03-02T01:18:31.418Z,98730
2015-03-02T01:18:50.096Z,98721
2015-03-02T01:19:08.783Z,98733
2015-03-02T01:19:27.456Z,98735
2015-03-02T01:19:46.134Z,98735
2015-03-02T01:20:04.809Z,98735
2015-03-02T01:20:23.474Z,98738
2015-03-02T01:20:42.173Z,98727
2015-03-02T01:21:00.841Z,98738
2015-03-02T01:21:19.376Z,98733
2015-03-02T01:21:38.052Z,98733
2015-03-02T01:21:56.729Z,98735
2015-03-02T01:22:15.409Z,98733
2015-03-02T01:22:34.104Z,98733
2015-03-02T01:22:52.782Z,98730
2015-03-02T01:23:11.454Z,98733
2015-03-02T01:23:30.143Z,98738
2015-03-02T01:23:48.823Z,98733
2015-03-02T01:24:07.499Z,98733
2015-03-02T01:24:26.160Z,98735
2015-03-02T01:24:44.851Z,98733
2015-03-02T01:25:03.541Z,98735
2015-03-02T01:25:22.063Z,98730
2015-03-02T01:25:40.756Z,98727
2015-03-02T01:25:59.440Z,98727
2015-03-02T01:26:18.121Z,98721
2015-03-02T01:26:36.790Z,98713
2015-03-02T01:26:55.475Z,98721
2015-03-02T01:27:14.132Z,98721
2015-03-02T01:27:32.817Z,98727
2015-03-02T01:27:51.512Z,98721
2015-03-02T01:28:10.186Z,98727
2015-03-02T01:28:28.849Z,98707
2015-03-02T01:28:47.548Z,98704
2015-03-02T01:29:06.211Z,98718
2015-03-02T01:29:24.904Z,98724
2015-03-02T01:29:43.593Z,98727
2015-03-02T01:30:02.267Z,98724
2015-03-02T01:30:20.943Z,98721
2015-03-02T01:30:39.617Z,98721
2015-03-02T01:30:58.297Z,98724
2015-03-02T01:31:16.972Z,98730
2015-03-02T01:31:35.645Z,98730
2015-03-02T01:31:54.330Z,98724
2015-03-02T01:32:13.000Z,98724
2015-03-02T01:32:31.673Z,98733
2015-03-02T01:32:50.358Z,98727
2015-03-02T01:33:09.048Z,98730
2015-03-02T01:33:27.728Z,98733
2015-03-02T01:33:46.416Z,98733
2015-03-02T01:34:05.087Z,98727
2015-03-02T01:34:23.768Z,98724
2015-03-02T01:34:42.430Z,98733
2015-03-02T01:35:01.127Z,98730
2015-03-02T01:35:19.811Z,98724
2015-03-02T01:35:38.485Z,98727
2015-03-02T01:35:57.152Z,98733
2015-03-02T01:36:15.825Z,98724
2015-03-02T01:36:34.521Z,98733
2015-03-02T01:36:53.190Z,98733
2015-03-02T01:37:11.877Z,98738
2015-03-02T01:37:30.578Z,98730
2015-03-02T01:37:49.263Z,98715
2015-03-02T01:38:07.942Z,98724
2015-03-02T01:38:26.617Z,98727
2015-03-02T01:38:45.302Z,98736
2015-03-02T01:39:03.976Z,98738
2015-03-02T01:39:22.658Z,98738
2015-03-02T01:39:41.332Z,98730
2015-03-02T01:39:59.996Z,98724
2015-03-02T01:40:18.687Z,98724
2015-03-02T01:40:37.373Z,98704
2015-03-02T01:40:56.052Z,98713
2015-03-02T01:41:14.737Z,98718
2015-03-02T01:41:33.417Z,98730
2015-03-02T01:41:52.108Z,98724
2015-03-02T01:42:10.795Z,98716
2015-03-02T01:42:29.457Z,98724
2015-03-02T01:42:48.133Z,98733
2015-03-02T01:43:06.811Z,98736
2015-03-02T01:43:25.498Z,98730
2015-03-02T01:43:44.175Z,98733
2015-03-02T01:44:02.840Z,98727
2015-03-02T01:44:21.527Z,98713
2015-03-02T01:44:40.202Z,98715
2015-03-02T01:44:58.878Z,98713
2015-03-02T01:45:17.541Z,98727
2015-03-02T01:45:36.234Z,98724
2015-03-02T01:45:54.908Z,98724
2015-03-02T01:46:13.568Z,98724
2015-03-02T01:46:32.272Z,98724
2015-03-02T01:46:50.955Z,98721
2015-03-02T01:47:09.620Z,98718
2015-03-02T01:47:28.321Z,98721
2015-03-02T01:47:47.001Z,98713
2015-03-02T01:48:05.660Z,98713
2015-03-02T01:48:24.356Z,98716
2015-03-02T01:48:43.040Z,98715
2015-03-02T01:49:01.713Z,98718
2015-03-02T01:49:20.383Z,98721
2015-03-02T01:49:39.058Z,98713
2015-03-02T01:49:57.733Z,98724
2015-03-02T01:50:16.417Z,98718
2015-03-02T01:50:35.103Z,98718
2015-03-02T01:50:53.781Z,98715
2015-03-02T01:51:12.467Z,98715
2015-03-02T01:51:31.144Z,98724
2015-03-02T01:51:49.820Z,98721
2015-03-02T01:52:08.504Z,98724
2015-03-02T01:52:27.170Z,98715
2015-03-02T01:52:45.834Z,98724
2015-03-02T01:53:04.527Z,98713
2015-03-02T01:53:23.210Z,98713
2015-03-02T01:53:41.876Z,98713
2015-03-02T01:54:00.568Z,98713
2015-03-02T01:54:19.232Z,98713
2015-03-02T01:54:37.928Z,98710
2015-03-02T01:54:56.599Z,98710
2015-03-02T01:55:15.306Z,98715
2015-03-02T01:55:33.983Z,98713
2015-03-02T01:55:52.662Z,98721
2015-03-02T01:56:11.332Z,98715
2015-03-02T01:56:30.000Z,98721
2015-03-02T01:56:48.695Z,98724
2015-03-02T01:57:07.374Z,98721
2015-03-02T01:57:26.052Z,98718
2015-03-02T01:57:44.711Z,98721
2015-03-02T01:58:03.407Z,98721
2015-03-02T01:58:22.088Z,98730
2015-03-02T01:58:40.760Z,98730
2015-03-02T01:58:59.440Z,98730
2015-03-02T01:59:18.128Z,98727
2015-03-02T01:59:36.804Z,98730
2015-03-02T01:59:55.468Z,98730
2015-03-02T02:00:14.164Z,98739
2015-03-02T02:00:32.845Z,98739
2015-03-02T02:00:51.511Z,98736
2015-03-02T02:01:10.190Z,98747
2015-03-02T02:01:28.874Z,98739
2015-03-02T02:01:47.562Z,98744
2015-03-02T02:02:06.229Z,98741
2015-03-02T02:02:24.923Z,98741
2015-03-02T02:02:43.595Z,98744
2015-03-02T02:03:02.279Z,98753
2015-03-02T02:03:20.955Z,98747
2015-03-02T02:03:39.633Z,98744
2015-03-02T02:03:58.299Z,98741
2015-03-02T02:04:16.993Z,98756
2015-03-02T02:04:35.653Z,98747
2015-03-02T02:04:54.342Z,98741
2015-03-02T02:05:13.022Z,98739
2015-03-02T02:05:31.699Z,98733
2015-03-02T02:05:50.388Z,98739
2015-03-02T02:06:09.069Z,98730
2015-03-02T02:06:27.756Z,98744
2015-03-02T02:06:46.436Z,98744
2015-03-02T02:07:05.118Z,98733
2015-03-02T02:07:23.790Z,98739
2015-03-02T02:07:42.486Z,98739
2015-03-02T02:08:01.166Z,98739
2015-03-02T02:08:19.845Z,98741
2015-03-02T02:08:38.517Z,98727
2015-03-02T02:08:57.179Z,98741
2015-03-02T02:09:15.859Z,98750
2015-03-02T02:09:34.557Z,98744
2015-03-02T02:09:53.244Z,98750
2015-03-02T02:10:11.940Z,98747
2015-03-02T02:10:30.594Z,98756
2015-03-02T02:10:49.269Z,98750
2015-03-02T02:11:07.969Z,98750
2015-03-02T02:11:26.639Z,98756
2015-03-02T02:11:45.309Z,98747
2015-03-02T02:12:03.983Z,98750
2015-03-02T02:12:22.686Z,98753
2015-03-02T02:12:41.366Z,98744
2015-03-02T02:13:00.038Z,98759
2015-03-02T02:13:18.710Z,98744
2015-03-02T02:13:37.407Z,98744
2015-03-02T02:13:56.070Z,98756
2015-03-02T02:14:14.760Z,98750
2015-03-02T02:14:33.439Z,98753
2015-03-02T02:14:52.123Z,98756
2015-03-02T02:15:10.804Z,98759
2015-03-02T02:15:29.481Z,98767
2015-03-02T02:15:48.161Z,98770
2015-03-02T02:16:06.824Z,98762
2015-03-02T02:16:25.520Z,98767
2015-03-02T02:16:44.201Z,98759
2015-03-02T02:17:02.858Z,98764
2015-03-02T02:17:21.553Z,98764
2015-03-02T02:17:40.231Z,98753
2015-03-02T02:17:58.924Z,98750
2015-03-02T02:18:17.574Z,98767
2015-03-02T02:18:36.253Z,98753
2015-03-02T02:18:54.933Z,98764
2015-03-02T02:19:13.625Z,98753
2015-03-02T02:19:32.310Z,98762
2015-03-02T02:19:50.980Z,98762
2015-03-02T02:20:09.658Z,98747
2015-03-02T02:20:28.329Z,98756
2015-03-02T02:20:47.024Z,98759
2015-03-02T02:21:05.685Z,98764
2015-03-02T02:21:24.375Z,98759
2015-03-02T02:21:43.052Z,98773
2015-03-02T02:22:01.753Z,98750
2015-03-02T02:22:20.426Z,98767
2015-03-02T02:22:39.118Z,98759
2015-03-02T02:22:57.796Z,98750
2015-03-02T02:23:16.457Z,98756
2015-03-02T02:23:35.154Z,98762
2015-03-02T02:23:53.813Z,98770
2015-03-02T02:24:12.511Z,98759
2015-03-02T02:24:31.197Z,98767
2015-03-02T02:24:49.854Z,98764
2015-03-02T02:25:08.530Z,98770
2015-03-02T02:25:27.211Z,98773
2015-03-02T02:25:45.902Z,98767
2015-03-02T02:26:04.578Z,98767
2015-03-02T02:26:23.252Z,98770
2015-03-02T02:26:41.937Z,98770
2015-03-02T02:27:00.617Z,98759
2015-03-02T02:27:19.293Z,98767
2015-03-02T02:27:37.983Z,98767
2015-03-02T02:27:56.669Z,98770
2015-03-02T02:28:15.362Z,98773
2015-03-02T02:28:34.061Z,98767
2015-03-02T02:28:52.706Z,98764
2015-03-02T02:29:11.407Z,98770
2015-03-02T02:29:30.084Z,98764
2015-03-02T02:29:48.757Z,98762
2015-03-02T02:30:07.420Z,98759
2015-03-02T02:30:26.101Z,98764
2015-03-02T02:30:44.791Z,98770
2015-03-02T02:31:03.455Z,98762
2015-03-02T02:31:22.142Z,98756
2015-03-02T02:31:40.806Z,98759
2015-03-02T02:31:59.498Z,98764
2015-03-02T02:32:18.179Z,98762
2015-03-02T02:32:36.847Z,98762
2015-03-02T02:32:55.531Z,98776
2015-03-02T02:33:14.234Z,98756
2015-03-02T02:33:32.896Z,98764
2015-03-02T02:33:51.579Z,98770
2015-03-02T02:34:10.262Z,98770
2015-03-02T02:34:28.966Z,98764
2015-03-02T02:34:47.659Z,98770
2015-03-02T02:35:06.350Z,98762
2015-03-02T02:35:25.006Z,98776
2015-03-02T02:35:43.698Z,98770
2015-03-02T02:36:02.379Z,98767
2015-03-02T02:36:21.038Z,98762
2015-03-02T02:36:39.733Z,98759
2015-03-02T02:36:58.403Z,98770
2015-03-02T02:37:17.088Z,98762
2015-03-02T02:37:35.769Z,98767
2015-03-02T02:37:54.444Z,98773
2015-03-02T02:38:13.125Z,98773
2015-03-02T02:38:31.800Z,98759
2015-03-02T02:38:50.464Z,98767
2015-03-02T02:39:09.166Z,98770
2015-03-02T02:39:27.833Z,98773
2015-03-02T02:39:46.515Z,98770
2015-03-02T02:40:05.186Z,98770
2015-03-02T02:40:23.886Z,98767
2015-03-02T02:40:42.560Z,98762
2015-03-02T02:41:01.104Z,98759
2015-03-02T02:41:19.781Z,98764
2015-03-02T02:41:38.452Z,98767
2015-03-02T02:41:57.148Z,98759
2015-03-02T02:42:15.853Z,98764
2015-03-02T02:42:34.493Z,98770
2015-03-02T02:42:53.184Z,98767
2015-03-02T02:43:11.850Z,98770
2015-03-02T02:43:30.526Z,98762
2015-03-02T02:43:49.204Z,98756
2015-03-02T02:44:07.894Z,98765
2015-03-02T02:44:26.571Z,98770
2015-03-02T02:44:45.252Z,98770
2015-03-02T02:45:03.929Z,98767
2015-03-02T02:45:22.614Z,98767
2015-03-02T02:45:41.302Z,98762
2015-03-02T02:45:59.978Z,98773
2015-03-02T02:46:18.646Z,98767
2015-03-02T02:46:37.325Z,98770
2015-03-02T02:46:55.998Z,98762
2015-03-02T02:47:14.691Z,98759
2015-03-02T02:47:33.382Z,98767
2015-03-02T02:47:52.051Z,98762
2015-03-02T02:48:10.738Z,98762
2015-03-02T02:48:29.436Z,98773
2015-03-02T02:48:48.115Z,98770
2015-03-02T02:49:06.777Z,98765
2015-03-02T02:49:25.451Z,98773
2015-03-02T02:49:44.128Z,98773
2015-03-02T02:50:02.818Z,98770
2015-03-02T02:50:21.477Z,98779
2015-03-02T02:50:40.176Z,98773
2015-03-02T02:50:58.859Z,98779
2015-03-02T02:51:17.535Z,98782
2015-03-02T02:51:36.197Z,98782
2015-03-02T02:51:54.874Z,98792
2015-03-02T02:52:13.557Z,98776
2015-03-02T02:52:32.247Z,98782
2015-03-02T02:52:50.906Z,98782
2015-03-02T02:53:09.580Z,98779
2015-03-02T02:53:28.270Z,98782
2015-03-02T02:53:46.946Z,98779
2015-03-02T02:54:05.621Z,98788
2015-03-02T02:54:24.311Z,98782
2015-03-02T02:54:43.012Z,98792
2015-03-02T02:55:01.677Z,98782
2015-03-02T02:55:20.375Z,98785
2015-03-02T02:55:39.063Z,98782
2015-03-02T02:55:57.743Z,98793
2015-03-02T02:56:16.418Z,98785
2015-03-02T02:56:35.089Z,98779
2015-03-02T02:56:53.773Z,98793
2015-03-02T02:57:12.452Z,98782
2015-03-02T02:57:31.110Z,98793
2015-03-02T02:57:49.793Z,98788
2015-03-02T02:58:08.483Z,98795
2015-03-02T02:58:27.145Z,98792
2015-03-02T02:58:45.837Z,98793
2015-03-02T02:59:04.513Z,98788
2015-03-02T02:59:23.189Z,98792
2015-03-02T02:59:41.868Z,98795
2015-03-02T03:00:00.548Z,98801
2015-03-02T03:00:19.219Z,98795
2015-03-02T03:00:37.887Z,98801
2015-03-02T03:00:56.566Z,98798
2015-03-02T03:01:15.252Z,98792
2015-03-02T03:01:33.951Z,98795
2015-03-02T03:01:52.635Z,98801
2015-03-02T03:02:11.295Z,98792
2015-03-02T03:02:29.991Z,98798
2015-03-02T03:02:48.675Z,98801
2015-03-02T03:03:07.343Z,98795
2015-03-02T03:03:26.005Z,98804
2015-03-02T03:03:44.702Z,98801
2015-03-02T03:04:03.386Z,98798
2015-03-02T03:04:22.057Z,98798
2015-03-02T03:04:40.737Z,98793
2015-03-02T03:04:59.414Z,98798
2015-03-02T03:05:18.086Z,98793
2015-03-02T03:05:36.754Z,98798
2015-03-02T03:05:55.443Z,98798
2015-03-02T03:06:14.127Z,98785
2015-03-02T03:06:32.783Z,98782
2015-03-02T03:06:51.476Z,98788
2015-03-02T03:07:10.141Z,98793
2015-03-02T03:07:28.829Z,98785
2015-03-02T03:07:47.503Z,98795
2015-03-02T03:08:06.180Z,98785
2015-03-02T03:08:24.881Z,98793
2015-03-02T03:08:43.570Z,98788
2015-03-02T03:09:02.242Z,98776
2015-03-02T03:09:20.945Z,98782
2015-03-02T03:09:39.616Z,98779
2015-03-02T03:09:58.285Z,98788
2015-03-02T03:10:16.961Z,98792
2015-03-02T03:10:35.649Z,98798
2015-03-02T03:10:54.327Z,98795
2015-03-02T03:11:13.003Z,98793
2015-03-02T03:11:31.678Z,98788
2015-03-02T03:11:50.366Z,98788
2015-03-02T03:12:09.041Z,98793
2015-03-02T03:12:27.714Z,98795
2015-03-02T03:12:46.396Z,98798
2015-03-02T03:13:05.057Z,98793
2015-03-02T03:13:23.754Z,98793
2015-03-02T03:13:42.409Z,98793
2015-03-02T03:14:01.090Z,98801
2015-03-02T03:14:19.771Z,98801
2015-03-02T03:14:38.468Z,98785
2015-03-02T03:14:57.140Z,98793
2015-03-02T03:15:15.843Z,98782
2015-03-02T03:15:34.525Z,98793
2015-03-02T03:15:53.204Z,98788
2015-03-02T03:16:11.876Z,98782
2015-03-02T03:16:30.541Z,98788
2015-03-02T03:16:49.221Z,98798
2015-03-02T03:17:07.914Z,98801
2015-03-02T03:17:26.593Z,98792
2015-03-02T03:17:45.267Z,98792
2015-03-02T03:18:03.947Z,98793
2015-03-02T03:18:22.465Z,98798
2015-03-02T03:18:41.136Z,98793
2015-03-02T03:18:59.819Z,98793
2015-03-02T03:19:18.496Z,98782
2015-03-02T03:19:37.176Z,98798
2015-03-02T03:19:55.837Z,98793
2015-03-02T03:20:14.535Z,98804
2015-03-02T03:20:33.221Z,98801
2015-03-02T03:20:51.901Z,98793
2015-03-02T03:21:10.565Z,98795
2015-03-02T03:21:29.260Z,98785
2015-03-02T03:21:47.955Z,98798
2015-03-02T03:22:06.639Z,98788
2015-03-02T03:22:25.292Z,98793
2015-03-02T03:22:43.987Z,98795
2015-03-02T03:23:02.656Z,98793
2015-03-02T03:23:21.343Z,98798
2015-03-02T03:23:40.014Z,98788
2015-03-02T03:23:58.688Z,98788
2015-03-02T03:24:17.365Z,98785
2015-03-02T03:24:36.046Z,98782
2015-03-02T03:24:54.711Z,98788
2015-03-02T03:25:13.405Z,98793
2015-03-02T03:25:32.088Z,98785
2015-03-02T03:25:50.760Z,98785
2015-03-02T03:26:09.423Z,98793
2015-03-02T03:26:28.105Z,98798
2015-03-02T03:26:46.776Z,98788
2015-03-02T03:27:05.474Z,98785
2015-03-02T03:27:24.162Z,98785
2015-03-02T03:27:42.838Z,98798
2015-03-02T03:28:01.518Z,98793
2015-03-02T03:28:20.221Z,98793
2015-03-02T03:28:38.907Z,98804
2015-03-02T03:28:57.570Z,98804
2015-03-02T03:29:16.248Z,98804
2015-03-02T03:29:34.940Z,98793
2015-03-02T03:29:53.608Z,98801
2015-03-02T03:30:12.276Z,98810
2015-03-02T03:30:30.958Z,98807
2015-03-02T03:30:49.648Z,98804
2015-03-02T03:31:08.330Z,98801
2015-03-02T03:31:27.008Z,98807
2015-03-02T03:31:45.665Z,98810
2015-03-02T03:32:04.365Z,98807
2015-03-02T03:32:23.019Z,98807
2015-03-02T03:32:41.710Z,98816
2015-03-02T03:33:00.372Z,98818
2015-03-02T03:33:19.068Z,98810
2015-03-02T03:33:37.747Z,98813
2015-03-02T03:33:56.433Z,98810
2015-03-02T03:34:15.094Z,98813
2015-03-02T03:34:33.802Z,98816
2015-03-02T03:34:52.464Z,98810
2015-03-02T03:35:11.165Z,98801
2015-03-02T03:35:29.840Z,98810
2015-03-02T03:35:48.514Z,98810
2015-03-02T03:36:07.038Z,98804
2015-03-02T03:36:25.701Z,98804
2015-03-02T03:36:44.376Z,98813
2015-03-02T03:37:03.068Z,98813
2015-03-02T03:37:21.739Z,98816
2015-03-02T03:37:40.423Z,98813
2015-03-02T03:37:59.093Z,98816
2015-03-02T03:38:17.777Z,98824
2015-03-02T03:38:36.443Z,98821
2015-03-02T03:38:55.123Z,98829
2015-03-02T03:39:13.815Z,98829
2015-03-02T03:39:32.485Z,98832
2015-03-02T03:39:51.167Z,98841
2015-03-02T03:40:09.834Z,98838
2015-03-02T03:40:28.524Z,98838
2015-03-02T03:40:47.194Z,98835
2015-03-02T03:41:05.884Z,98832
2015-03-02T03:41:24.564Z,98838
2015-03-02T03:41:43.243Z,98843
2015-03-02T03:42:01.910Z,98843
2015-03-02T03:42:20.608Z,98855
2015-03-02T03:42:39.280Z,98849
2015-03-02T03:42:57.975Z,98843
2015-03-02T03:43:16.636Z,98843
2015-03-02T03:43:35.317Z,98843
2015-03-02T03:43:53.993Z,98849
2015-03-02T03:44:12.667Z,98843
2015-03-02T03:44:31.363Z,98838
2015-03-02T03:44:50.038Z,98835
2015-03-02T03:45:08.700Z,98843
2015-03-02T03:45:27.389Z,98843
2015-03-02T03:45:46.053Z,98843
2015-03-02T03:46:04.747Z,98840
2015-03-02T03:46:23.409Z,98846
2015-03-02T03:46:42.106Z,98829
2015-03-02T03:47:00.768Z,98840
2015-03-02T03:47:19.445Z,98835
2015-03-02T03:47:38.127Z,98837
2015-03-02T03:47:56.808Z,98837
2015-03-02T03:48:15.492Z,98834
2015-03-02T03:48:34.193Z,98832
2015-03-02T03:48:52.889Z,98834
2015-03-02T03:49:11.408Z,98832
2015-03-02T03:49:30.093Z,98834
2015-03-02T03:49:48.776Z,98831
2015-03-02T03:50:07.441Z,98831
2015-03-02T03:50:26.118Z,98828
2015-03-02T03:50:44.793Z,98821
2015-03-02T03:51:03.486Z,98821
2015-03-02T03:51:22.140Z,98831
2015-03-02T03:51:40.830Z,98840
2015-03-02T03:51:59.494Z,98828
2015-03-02T03:52:18.179Z,98834
2015-03-02T03:52:36.845Z,98834
2015-03-02T03:52:55.531Z,98831
2015-03-02T03:53:14.193Z,98826
2015-03-02T03:53:32.899Z,98821
2015-03-02T03:53:51.575Z,98831
2015-03-02T03:54:10.238Z,98823
2015-03-02T03:54:28.914Z,98826
2015-03-02T03:54:47.611Z,98837
2015-03-02T03:55:06.281Z,98831
2015-03-02T03:55:24.975Z,98834
2015-03-02T03:55:43.656Z,98834
2015-03-02T03:56:02.334Z,98837
2015-03-02T03:56:21.020Z,98828
2015-03-02T03:56:39.701Z,98834
2015-03-02T03:56:58.359Z,98826
2015-03-02T03:57:17.049Z,98823
2015-03-02T03:57:35.711Z,98818
2015-03-02T03:57:54.406Z,98828
2015-03-02T03:58:13.066Z,98823
2015-03-02T03:58:31.755Z,98834
2015-03-02T03:58:50.426Z,98837
2015-03-02T03:59:09.116Z,98842
2015-03-02T03:59:27.797Z,98842
2015-03-02T03:59:46.456Z,98837
2015-03-02T04:00:05.144Z,98837
2015-03-02T04:00:23.824Z,98831